This is the latest recevied weather packets stored in our database for station/object DB0RV-13. If no packets are shown the sender has not sent any weather packets the latest 10 day(s).
| Time | Temp. | Humidity | Pressure | Rain* | Wind** | Luminosity | Snow |
|---|---|---|---|---|---|---|---|
| 1777880702 | 15° C | 57% | 1014 hPa | - | - | - | - |
| 1777880402 | 15° C | 56% | 1014 hPa | - | - | - | - |
| 1777880101 | 14.44° C | 59% | 1013.9 hPa | - | - | - | - |
| 1777879802 | 13.89° C | 62% | 1014 hPa | - | - | - | - |
| 1777879501 | 13.89° C | 60% | 1014 hPa | - | - | - | - |
| 1777879202 | 13.33° C | 61% | 1014.1 hPa | - | - | - | - |
| 1777878901 | 13.33° C | 62% | 1014 hPa | - | - | - | - |
| 1777878602 | 13.33° C | 63% | 1014 hPa | - | - | - | - |
| 1777878301 | 12.78° C | 64% | 1014.1 hPa | - | - | - | - |
| 1777878002 | 12.78° C | 65% | 1014.1 hPa | - | - | - | - |
| 1777877702 | 12.22° C | 66% | 1014.2 hPa | - | - | - | - |
| 1777877401 | 12.22° C | 66% | 1014.2 hPa | - | - | - | - |
| 1777877102 | 12.22° C | 66% | 1014.1 hPa | - | - | - | - |
| 1777876801 | 11.67° C | 68% | 1014.1 hPa | - | - | - | - |
| 1777876502 | 11.11° C | 70% | 1014.1 hPa | - | - | - | - |
| 1777876201 | 10.56° C | 71% | 1014.1 hPa | - | - | - | - |
| 1777875902 | 10.56° C | 70% | 1014.1 hPa | - | - | - | - |
| 1777875601 | 10.56° C | 70% | 1014.1 hPa | - | - | - | - |
| 1777875301 | 10.56° C | 72% | 1014.1 hPa | - | - | - | - |
| 1777875002 | 10.56° C | 70% | 1014.1 hPa | - | - | - | - |
| 1777874701 | 10° C | 73% | 1014.2 hPa | - | - | - | - |
| 1777874402 | 9.44° C | 76% | 1014.1 hPa | - | - | - | - |
| 1777874101 | 10° C | 75% | 1014.1 hPa | - | - | - | - |
| 1777873802 | 9.44° C | 76% | 1014.1 hPa | - | - | - | - |
| 1777873501 | 10° C | 75% | 1014 hPa | - | - | - | - |
* Rain since midnight (hover to see other rain measurements)
** Current wind speed in m/s (hover to see current wind gust speed)